sensor_id;sensor_type;location;lat;lon;timestamp;temperature;humidity
29547;DHT22;40782;47.264;11.330;2023-01-05T00:02:19;3.00;1.00
29547;DHT22;40782;47.264;11.330;2023-01-05T00:04:46;3.10;1.00
29547;DHT22;40782;47.264;11.330;2023-01-05T00:07:13;3.10;1.00
29547;DHT22;40782;47.264;11.330;2023-01-05T00:09:40;3.10;1.00
29547;DHT22;40782;47.264;11.330;2023-01-05T00:12:09;3.10;1.00
29547;DHT22;40782;47.264;11.330;2023-01-05T00:14:53;3.10;1.00
29547;DHT22;40782;47.264;11.330;2023-01-05T00:17:38;3.20;1.00
29547;DHT22;40782;47.264;11.330;2023-01-05T00:20:34;3.30;1.00
29547;DHT22;40782;47.264;11.330;2023-01-05T00:23:19;3.30;1.00
29547;DHT22;40782;47.264;11.330;2023-01-05T00:25:46;3.30;1.00
29547;DHT22;40782;47.264;11.330;2023-01-05T00:28:14;3.30;1.00
29547;DHT22;40782;47.264;11.330;2023-01-05T00:30:44;3.30;1.00
29547;DHT22;40782;47.264;11.330;2023-01-05T00:33:14;3.30;1.00
29547;DHT22;40782;47.264;11.330;2023-01-05T00:35:42;3.20;1.00
29547;DHT22;40782;47.264;11.330;2023-01-05T00:38:09;3.20;1.00
29547;DHT22;40782;47.264;11.330;2023-01-05T00:40:37;3.10;1.00
29547;DHT22;40782;47.264;11.330;2023-01-05T00:43:04;3.10;1.00
29547;DHT22;40782;47.264;11.330;2023-01-05T00:45:33;3.20;1.00
29547;DHT22;40782;47.264;11.330;2023-01-05T00:48:00;3.20;1.00
29547;DHT22;40782;47.264;11.330;2023-01-05T00:50:27;3.30;1.00
29547;DHT22;40782;47.264;11.330;2023-01-05T00:52:54;3.30;1.00
29547;DHT22;40782;47.264;11.330;2023-01-05T00:55:21;3.30;1.00
29547;DHT22;40782;47.264;11.330;2023-01-05T00:57:48;3.20;1.00
29547;DHT22;40782;47.264;11.330;2023-01-05T01:00:17;3.20;1.00
29547;DHT22;40782;47.264;11.330;2023-01-05T01:02:46;3.30;1.00
29547;DHT22;40782;47.264;11.330;2023-01-05T01:05:13;3.30;1.00
29547;DHT22;40782;47.264;11.330;2023-01-05T01:07:40;3.30;1.00
29547;DHT22;40782;47.264;11.330;2023-01-05T01:10:09;3.30;1.00
29547;DHT22;40782;47.264;11.330;2023-01-05T01:12:36;3.30;1.00
29547;DHT22;40782;47.264;11.330;2023-01-05T01:15:05;3.30;1.00
29547;DHT22;40782;47.264;11.330;2023-01-05T01:17:32;3.40;1.00
29547;DHT22;40782;47.264;11.330;2023-01-05T01:20:01;3.40;1.00
29547;DHT22;40782;47.264;11.330;2023-01-05T01:22:28;3.40;1.00
29547;DHT22;40782;47.264;11.330;2023-01-05T01:24:55;3.50;1.00
29547;DHT22;40782;47.264;11.330;2023-01-05T01:27:22;3.50;1.00
29547;DHT22;40782;47.264;11.330;2023-01-05T01:29:49;3.50;1.00
29547;DHT22;40782;47.264;11.330;2023-01-05T01:32:17;3.50;1.00
29547;DHT22;40782;47.264;11.330;2023-01-05T01:34:44;3.50;1.00
29547;DHT22;40782;47.264;11.330;2023-01-05T01:37:13;3.40;1.00
29547;DHT22;40782;47.264;11.330;2023-01-05T01:39:41;3.40;1.00
29547;DHT22;40782;47.264;11.330;2023-01-05T01:42:12;3.40;1.00
29547;DHT22;40782;47.264;11.330;2023-01-05T01:44:51;3.40;1.00
29547;DHT22;40782;47.264;11.330;2023-01-05T01:47:23;3.50;1.00
29547;DHT22;40782;47.264;11.330;2023-01-05T01:49:53;3.50;1.00
29547;DHT22;40782;47.264;11.330;2023-01-05T01:52:24;3.50;1.00
29547;DHT22;40782;47.264;11.330;2023-01-05T01:54:53;3.50;99.90
29547;DHT22;40782;47.264;11.330;2023-01-05T01:57:22;3.50;99.90
29547;DHT22;40782;47.264;11.330;2023-01-05T01:59:50;3.40;99.90
29547;DHT22;40782;47.264;11.330;2023-01-05T02:02:17;3.40;99.90
29547;DHT22;40782;47.264;11.330;2023-01-05T02:04:45;3.40;99.90
29547;DHT22;40782;47.264;11.330;2023-01-05T02:07:14;3.30;99.90
29547;DHT22;40782;47.264;11.330;2023-01-05T02:09:43;3.30;99.90
29547;DHT22;40782;47.264;11.330;2023-01-05T02:12:24;3.30;1.00
29547;DHT22;40782;47.264;11.330;2023-01-05T02:15:04;3.30;1.00
29547;DHT22;40782;47.264;11.330;2023-01-05T02:17:40;3.30;1.00
29547;DHT22;40782;47.264;11.330;2023-01-05T02:32:48;3.40;99.90
29547;DHT22;40782;47.264;11.330;2023-01-05T02:35:26;3.40;99.90
29547;DHT22;40782;47.264;11.330;2023-01-05T02:38:00;3.30;99.90
29547;DHT22;40782;47.264;11.330;2023-01-05T02:40:33;3.30;99.90
29547;DHT22;40782;47.264;11.330;2023-01-05T02:43:02;3.30;99.90
29547;DHT22;40782;47.264;11.330;2023-01-05T02:45:30;3.30;1.00
29547;DHT22;40782;47.264;11.330;2023-01-05T02:47:59;3.30;99.90
29547;DHT22;40782;47.264;11.330;2023-01-05T02:50:30;3.30;99.90
29547;DHT22;40782;47.264;11.330;2023-01-05T02:53:04;3.30;99.90
29547;DHT22;40782;47.264;11.330;2023-01-05T02:55:34;3.30;99.90
29547;DHT22;40782;47.264;11.330;2023-01-05T02:58:09;3.30;99.90
29547;DHT22;40782;47.264;11.330;2023-01-05T03:00:40;3.20;99.90
29547;DHT22;40782;47.264;11.330;2023-01-05T03:03:15;3.20;99.90
29547;DHT22;40782;47.264;11.330;2023-01-05T03:05:50;3.20;99.90
29547;DHT22;40782;47.264;11.330;2023-01-05T03:08:22;3.10;1.00
29547;DHT22;40782;47.264;11.330;2023-01-05T03:10:59;3.20;1.00
29547;DHT22;40782;47.264;11.330;2023-01-05T03:13:47;3.20;1.00
29547;DHT22;40782;47.264;11.330;2023-01-05T03:16:22;3.30;1.00
29547;DHT22;40782;47.264;11.330;2023-01-05T03:18:53;3.30;1.00
29547;DHT22;40782;47.264;11.330;2023-01-05T03:21:38;3.30;1.00
29547;DHT22;40782;47.264;11.330;2023-01-05T03:24:24;3.30;1.00
29547;DHT22;40782;47.264;11.330;2023-01-05T03:27:09;3.30;1.00
29547;DHT22;40782;47.264;11.330;2023-01-05T03:29:55;3.30;1.00
29547;DHT22;40782;47.264;11.330;2023-01-05T03:32:44;3.30;1.00
29547;DHT22;40782;47.264;11.330;2023-01-05T03:35:33;3.30;1.00
29547;DHT22;40782;47.264;11.330;2023-01-05T03:38:09;3.30;1.00
29547;DHT22;40782;47.264;11.330;2023-01-05T03:40:38;3.20;1.00
29547;DHT22;40782;47.264;11.330;2023-01-05T03:43:06;3.20;1.00
29547;DHT22;40782;47.264;11.330;2023-01-05T03:45:37;3.20;1.00
29547;DHT22;40782;47.264;11.330;2023-01-05T03:48:05;3.20;1.00
29547;DHT22;40782;47.264;11.330;2023-01-05T03:50:34;3.20;1.00
29547;DHT22;40782;47.264;11.330;2023-01-05T03:53:01;3.20;1.00
29547;DHT22;40782;47.264;11.330;2023-01-05T03:55:29;3.30;1.00
29547;DHT22;40782;47.264;11.330;2023-01-05T03:57:56;3.30;1.00
29547;DHT22;40782;47.264;11.330;2023-01-05T04:00:23;3.30;1.00
29547;DHT22;40782;47.264;11.330;2023-01-05T04:02:51;3.30;1.00
29547;DHT22;40782;47.264;11.330;2023-01-05T04:05:18;3.30;1.00
29547;DHT22;40782;47.264;11.330;2023-01-05T04:07:47;3.20;1.00
29547;DHT22;40782;47.264;11.330;2023-01-05T04:10:14;3.20;1.00
29547;DHT22;40782;47.264;11.330;2023-01-05T04:12:41;3.20;1.00
29547;DHT22;40782;47.264;11.330;2023-01-05T04:15:09;3.20;1.00
29547;DHT22;40782;47.264;11.330;2023-01-05T04:17:37;3.30;1.00
29547;DHT22;40782;47.264;11.330;2023-01-05T04:20:05;3.30;1.00
29547;DHT22;40782;47.264;11.330;2023-01-05T04:22:32;3.30;1.00
29547;DHT22;40782;47.264;11.330;2023-01-05T04:25:01;3.20;1.00
29547;DHT22;40782;47.264;11.330;2023-01-05T04:27:28;3.20;1.00
29547;DHT22;40782;47.264;11.330;2023-01-05T04:29:55;3.10;1.00
29547;DHT22;40782;47.264;11.330;2023-01-05T04:32:22;3.20;1.00
29547;DHT22;40782;47.264;11.330;2023-01-05T04:34:49;3.30;1.00
29547;DHT22;40782;47.264;11.330;2023-01-05T04:37:16;3.40;1.00
29547;DHT22;40782;47.264;11.330;2023-01-05T04:39:44;3.40;1.00
29547;DHT22;40782;47.264;11.330;2023-01-05T04:42:12;3.30;1.00
29547;DHT22;40782;47.264;11.330;2023-01-05T04:44:39;3.30;1.00
29547;DHT22;40782;47.264;11.330;2023-01-05T04:47:07;3.30;1.00
29547;DHT22;40782;47.264;11.330;2023-01-05T04:49:34;3.30;1.00
29547;DHT22;40782;47.264;11.330;2023-01-05T04:52:01;3.40;1.00
29547;DHT22;40782;47.264;11.330;2023-01-05T04:54:28;3.40;1.00
29547;DHT22;40782;47.264;11.330;2023-01-05T04:56:55;3.50;1.00
29547;DHT22;40782;47.264;11.330;2023-01-05T04:59:24;3.40;99.90
29547;DHT22;40782;47.264;11.330;2023-01-05T05:01:51;3.40;1.00
29547;DHT22;40782;47.264;11.330;2023-01-05T05:04:18;3.30;99.90
29547;DHT22;40782;47.264;11.330;2023-01-05T05:06:45;3.20;99.90
29547;DHT22;40782;47.264;11.330;2023-01-05T05:09:12;3.10;99.90
29547;DHT22;40782;47.264;11.330;2023-01-05T05:11:39;3.10;1.00
29547;DHT22;40782;47.264;11.330;2023-01-05T05:14:06;3.10;1.00
29547;DHT22;40782;47.264;11.330;2023-01-05T05:16:35;3.00;1.00
29547;DHT22;40782;47.264;11.330;2023-01-05T05:19:02;3.10;1.00
29547;DHT22;40782;47.264;11.330;2023-01-05T05:21:29;3.10;1.00
29547;DHT22;40782;47.264;11.330;2023-01-05T05:23:56;3.10;1.00
29547;DHT22;40782;47.264;11.330;2023-01-05T05:26:23;3.10;1.00
29547;DHT22;40782;47.264;11.330;2023-01-05T05:28:51;3.10;1.00
29547;DHT22;40782;47.264;11.330;2023-01-05T05:31:18;3.10;1.00
29547;DHT22;40782;47.264;11.330;2023-01-05T05:33:46;3.10;1.00
29547;DHT22;40782;47.264;11.330;2023-01-05T05:36:14;3.10;1.00
29547;DHT22;40782;47.264;11.330;2023-01-05T05:38:42;3.10;1.00
29547;DHT22;40782;47.264;11.330;2023-01-05T05:41:09;3.10;1.00
29547;DHT22;40782;47.264;11.330;2023-01-05T05:43:36;3.10;1.00
29547;DHT22;40782;47.264;11.330;2023-01-05T05:46:04;3.10;1.00
29547;DHT22;40782;47.264;11.330;2023-01-05T05:48:31;3.10;1.00
29547;DHT22;40782;47.264;11.330;2023-01-05T05:51:00;3.10;1.00
29547;DHT22;40782;47.264;11.330;2023-01-05T05:53:27;3.10;1.00
29547;DHT22;40782;47.264;11.330;2023-01-05T05:55:54;3.10;9.10
29547;DHT22;40782;47.264;11.330;2023-01-05T05:58:21;3.10;1.00
29547;DHT22;40782;47.264;11.330;2023-01-05T06:00:48;3.20;1.00
29547;DHT22;40782;47.264;11.330;2023-01-05T06:03:15;3.10;1.00
29547;DHT22;40782;47.264;11.330;2023-01-05T06:05:43;3.10;1.00
29547;DHT22;40782;47.264;11.330;2023-01-05T06:08:12;3.10;21.70
29547;DHT22;40782;47.264;11.330;2023-01-05T06:10:39;3.10;20.70
29547;DHT22;40782;47.264;11.330;2023-01-05T06:13:06;3.20;7.10
29547;DHT22;40782;47.264;11.330;2023-01-05T06:15:34;3.20;25.30
29547;DHT22;40782;47.264;11.330;2023-01-05T06:18:01;3.20;1.00
29547;DHT22;40782;47.264;11.330;2023-01-05T06:20:28;3.10;1.00
29547;DHT22;40782;47.264;11.330;2023-01-05T06:22:56;3.10;1.00
29547;DHT22;40782;47.264;11.330;2023-01-05T06:25:24;3.10;1.00
29547;DHT22;40782;47.264;11.330;2023-01-05T06:27:51;3.10;99.90
29547;DHT22;40782;47.264;11.330;2023-01-05T06:30:19;3.20;1.00
29547;DHT22;40782;47.264;11.330;2023-01-05T06:32:46;3.20;1.00
29547;DHT22;40782;47.264;11.330;2023-01-05T06:35:13;3.20;1.00
29547;DHT22;40782;47.264;11.330;2023-01-05T06:37:40;3.10;1.00
29547;DHT22;40782;47.264;11.330;2023-01-05T06:40:08;3.20;1.00
29547;DHT22;40782;47.264;11.330;2023-01-05T06:42:37;3.20;1.00
29547;DHT22;40782;47.264;11.330;2023-01-05T06:45:06;3.20;99.90
29547;DHT22;40782;47.264;11.330;2023-01-05T06:47:33;3.20;99.90
29547;DHT22;40782;47.264;11.330;2023-01-05T06:50:01;3.20;86.50
29547;DHT22;40782;47.264;11.330;2023-01-05T06:52:28;3.20;37.40
29547;DHT22;40782;47.264;11.330;2023-01-05T06:54:55;3.20;12.90
29547;DHT22;40782;47.264;11.330;2023-01-05T06:57:22;3.20;1.00
29547;DHT22;40782;47.264;11.330;2023-01-05T06:59:51;3.10;1.00
29547;DHT22;40782;47.264;11.330;2023-01-05T07:02:18;3.10;1.00
29547;DHT22;40782;47.264;11.330;2023-01-05T07:04:45;3.10;1.00
29547;DHT22;40782;47.264;11.330;2023-01-05T07:07:12;3.10;1.00
29547;DHT22;40782;47.264;11.330;2023-01-05T07:09:40;3.10;1.00
29547;DHT22;40782;47.264;11.330;2023-01-05T07:12:08;3.20;99.90
29547;DHT22;40782;47.264;11.330;2023-01-05T07:14:36;3.20;18.70
29547;DHT22;40782;47.264;11.330;2023-01-05T07:17:04;3.20;1.00
29547;DHT22;40782;47.264;11.330;2023-01-05T07:19:31;3.20;1.00
29547;DHT22;40782;47.264;11.330;2023-01-05T07:21:59;3.20;1.00
29547;DHT22;40782;47.264;11.330;2023-01-05T07:24:26;3.20;1.00
29547;DHT22;40782;47.264;11.330;2023-01-05T07:26:53;3.20;1.00
29547;DHT22;40782;47.264;11.330;2023-01-05T07:29:20;3.20;1.00
29547;DHT22;40782;47.264;11.330;2023-01-05T07:31:47;3.20;1.00
29547;DHT22;40782;47.264;11.330;2023-01-05T07:34:18;3.20;1.00
29547;DHT22;40782;47.264;11.330;2023-01-05T07:36:45;3.20;1.00
29547;DHT22;40782;47.264;11.330;2023-01-05T07:39:12;3.20;1.00
29547;DHT22;40782;47.264;11.330;2023-01-05T07:41:40;3.20;1.00
29547;DHT22;40782;47.264;11.330;2023-01-05T07:44:07;3.20;1.00
29547;DHT22;40782;47.264;11.330;2023-01-05T07:46:34;3.20;30.50
29547;DHT22;40782;47.264;11.330;2023-01-05T07:49:01;3.30;99.90
29547;DHT22;40782;47.264;11.330;2023-01-05T07:51:30;3.40;1.00
29547;DHT22;40782;47.264;11.330;2023-01-05T07:53:57;3.40;1.00
29547;DHT22;40782;47.264;11.330;2023-01-05T07:56:24;3.40;1.00
29547;DHT22;40782;47.264;11.330;2023-01-05T07:58:52;3.30;1.00
29547;DHT22;40782;47.264;11.330;2023-01-05T08:01:19;3.40;1.00
29547;DHT22;40782;47.264;11.330;2023-01-05T08:03:46;3.40;1.00
29547;DHT22;40782;47.264;11.330;2023-01-05T08:06:16;3.50;1.00
29547;DHT22;40782;47.264;11.330;2023-01-05T08:08:46;3.50;1.00
29547;DHT22;40782;47.264;11.330;2023-01-05T08:11:16;3.60;1.00
29547;DHT22;40782;47.264;11.330;2023-01-05T08:13:45;3.70;1.00
29547;DHT22;40782;47.264;11.330;2023-01-05T08:16:29;3.80;1.00
29547;DHT22;40782;47.264;11.330;2023-01-05T08:18:57;3.90;1.00
29547;DHT22;40782;47.264;11.330;2023-01-05T08:21:26;4.00;1.00
29547;DHT22;40782;47.264;11.330;2023-01-05T08:23:55;4.10;1.00
29547;DHT22;40782;47.264;11.330;2023-01-05T08:26:24;4.20;1.00
29547;DHT22;40782;47.264;11.330;2023-01-05T08:28:52;4.30;1.00
29547;DHT22;40782;47.264;11.330;2023-01-05T08:31:21;4.50;99.90
29547;DHT22;40782;47.264;11.330;2023-01-05T08:33:48;4.60;99.90
29547;DHT22;40782;47.264;11.330;2023-01-05T08:36:17;4.60;99.90
29547;DHT22;40782;47.264;11.330;2023-01-05T08:38:45;4.60;99.90
29547;DHT22;40782;47.264;11.330;2023-01-05T08:41:19;4.70;99.90
29547;DHT22;40782;47.264;11.330;2023-01-05T08:43:51;4.70;99.90
29547;DHT22;40782;47.264;11.330;2023-01-05T08:46:19;4.80;99.90
29547;DHT22;40782;47.264;11.330;2023-01-05T08:48:48;5.00;99.90
29547;DHT22;40782;47.264;11.330;2023-01-05T08:51:15;5.00;99.90
29547;DHT22;40782;47.264;11.330;2023-01-05T08:53:42;5.20;99.90
29547;DHT22;40782;47.264;11.330;2023-01-05T08:56:09;5.30;91.40
29547;DHT22;40782;47.264;11.330;2023-01-05T08:58:38;5.40;77.40
29547;DHT22;40782;47.264;11.330;2023-01-05T09:01:06;5.60;1.00
29547;DHT22;40782;47.264;11.330;2023-01-05T09:03:34;5.60;1.00
29547;DHT22;40782;47.264;11.330;2023-01-05T09:06:02;5.70;1.00
29547;DHT22;40782;47.264;11.330;2023-01-05T09:08:31;5.80;1.00
29547;DHT22;40782;47.264;11.330;2023-01-05T09:11:05;6.00;1.00
29547;DHT22;40782;47.264;11.330;2023-01-05T09:13:32;6.20;1.00
29547;DHT22;40782;47.264;11.330;2023-01-05T09:16:07;6.40;1.00
29547;DHT22;40782;47.264;11.330;2023-01-05T09:18:35;6.50;1.00
29547;DHT22;40782;47.264;11.330;2023-01-05T09:21:03;6.60;1.00
29547;DHT22;40782;47.264;11.330;2023-01-05T09:23:31;6.60;1.00
29547;DHT22;40782;47.264;11.330;2023-01-05T09:25:58;6.70;1.00
29547;DHT22;40782;47.264;11.330;2023-01-05T09:28:25;6.70;1.00
29547;DHT22;40782;47.264;11.330;2023-01-05T09:30:52;6.90;1.00
29547;DHT22;40782;47.264;11.330;2023-01-05T09:33:21;7.10;1.00
29547;DHT22;40782;47.264;11.330;2023-01-05T09:35:53;7.30;1.00
29547;DHT22;40782;47.264;11.330;2023-01-05T09:38:21;7.60;1.00
29547;DHT22;40782;47.264;11.330;2023-01-05T09:40:50;7.90;1.00
29547;DHT22;40782;47.264;11.330;2023-01-05T09:43:24;8.20;1.00
29547;DHT22;40782;47.264;11.330;2023-01-05T09:45:52;8.40;1.00
29547;DHT22;40782;47.264;11.330;2023-01-05T09:48:22;8.70;1.00
29547;DHT22;40782;47.264;11.330;2023-01-05T09:50:51;8.90;1.00
29547;DHT22;40782;47.264;11.330;2023-01-05T09:53:24;9.20;1.00
29547;DHT22;40782;47.264;11.330;2023-01-05T09:55:52;9.50;1.00
29547;DHT22;40782;47.264;11.330;2023-01-05T09:58:23;9.70;1.00
29547;DHT22;40782;47.264;11.330;2023-01-05T10:01:04;9.90;1.00
29547;DHT22;40782;47.264;11.330;2023-01-05T10:03:38;10.10;1.00
29547;DHT22;40782;47.264;11.330;2023-01-05T10:06:11;10.40;1.00
29547;DHT22;40782;47.264;11.330;2023-01-05T10:08:41;10.60;1.00
29547;DHT22;40782;47.264;11.330;2023-01-05T10:11:12;10.60;1.00
29547;DHT22;40782;47.264;11.330;2023-01-05T10:14:01;10.80;1.00
29547;DHT22;40782;47.264;11.330;2023-01-05T10:16:31;11.00;1.00
29547;DHT22;40782;47.264;11.330;2023-01-05T10:19:00;11.20;1.00
29547;DHT22;40782;47.264;11.330;2023-01-05T10:21:35;11.50;1.00
29547;DHT22;40782;47.264;11.330;2023-01-05T10:24:23;11.70;1.00
29547;DHT22;40782;47.264;11.330;2023-01-05T10:26:57;12.20;1.00
29547;DHT22;40782;47.264;11.330;2023-01-05T10:29:28;12.50;99.90
29547;DHT22;40782;47.264;11.330;2023-01-05T10:32:02;12.80;99.90
29547;DHT22;40782;47.264;11.330;2023-01-05T10:34:50;13.20;99.90
29547;DHT22;40782;47.264;11.330;2023-01-05T10:37:52;13.40;99.90
29547;DHT22;40782;47.264;11.330;2023-01-05T10:40:32;13.70;99.90
29547;DHT22;40782;47.264;11.330;2023-01-05T10:43:18;13.80;99.90
29547;DHT22;40782;47.264;11.330;2023-01-05T10:45:49;13.90;99.90
29547;DHT22;40782;47.264;11.330;2023-01-05T10:48:21;14.10;99.90
29547;DHT22;40782;47.264;11.330;2023-01-05T10:50:52;14.40;99.90
29547;DHT22;40782;47.264;11.330;2023-01-05T10:53:23;14.70;99.90
29547;DHT22;40782;47.264;11.330;2023-01-05T10:55:58;14.80;99.90
29547;DHT22;40782;47.264;11.330;2023-01-05T10:58:28;14.80;99.90
29547;DHT22;40782;47.264;11.330;2023-01-05T11:00:58;14.70;99.90
29547;DHT22;40782;47.264;11.330;2023-01-05T11:03:34;14.60;99.90
29547;DHT22;40782;47.264;11.330;2023-01-05T11:06:05;14.30;99.90
29547;DHT22;40782;47.264;11.330;2023-01-05T11:08:34;14.10;99.90
29547;DHT22;40782;47.264;11.330;2023-01-05T11:11:03;13.80;99.90
29547;DHT22;40782;47.264;11.330;2023-01-05T11:13:33;13.60;99.90
29547;DHT22;40782;47.264;11.330;2023-01-05T11:16:09;13.40;99.90
29547;DHT22;40782;47.264;11.330;2023-01-05T11:18:45;13.20;99.90
29547;DHT22;40782;47.264;11.330;2023-01-05T11:21:16;12.90;99.90
29547;DHT22;40782;47.264;11.330;2023-01-05T11:23:45;12.60;99.90
29547;DHT22;40782;47.264;11.330;2023-01-05T11:26:31;12.40;99.90
29547;DHT22;40782;47.264;11.330;2023-01-05T11:29:02;12.00;99.90
29547;DHT22;40782;47.264;11.330;2023-01-05T11:31:35;11.70;99.90
29547;DHT22;40782;47.264;11.330;2023-01-05T11:34:07;11.30;99.90
29547;DHT22;40782;47.264;11.330;2023-01-05T11:36:37;11.20;99.90
29547;DHT22;40782;47.264;11.330;2023-01-05T11:39:06;11.10;99.90
29547;DHT22;40782;47.264;11.330;2023-01-05T11:41:43;11.00;99.90
29547;DHT22;40782;47.264;11.330;2023-01-05T11:44:18;10.90;99.90
29547;DHT22;40782;47.264;11.330;2023-01-05T11:46:46;10.80;99.90
29547;DHT22;40782;47.264;11.330;2023-01-05T11:49:17;10.70;99.90
29547;DHT22;40782;47.264;11.330;2023-01-05T11:51:46;10.60;99.90
29547;DHT22;40782;47.264;11.330;2023-01-05T11:54:30;10.50;99.90
29547;DHT22;40782;47.264;11.330;2023-01-05T11:57:22;10.40;99.90
29547;DHT22;40782;47.264;11.330;2023-01-05T11:59:51;10.30;99.90
29547;DHT22;40782;47.264;11.330;2023-01-05T12:02:42;10.30;99.90
29547;DHT22;40782;47.264;11.330;2023-01-05T12:05:26;10.30;99.90
29547;DHT22;40782;47.264;11.330;2023-01-05T12:08:00;10.10;99.90
29547;DHT22;40782;47.264;11.330;2023-01-05T12:10:45;10.00;99.90
29547;DHT22;40782;47.264;11.330;2023-01-05T12:13:42;10.00;99.90
29547;DHT22;40782;47.264;11.330;2023-01-05T12:16:25;10.00;99.90
29547;DHT22;40782;47.264;11.330;2023-01-05T12:25:16;9.80;99.90
29547;DHT22;40782;47.264;11.330;2023-01-05T12:28:18;9.70;99.90
29547;DHT22;40782;47.264;11.330;2023-01-05T12:30:54;9.80;99.90
29547;DHT22;40782;47.264;11.330;2023-01-05T12:33:49;9.80;99.90
29547;DHT22;40782;47.264;11.330;2023-01-05T12:36:28;9.80;99.90
29547;DHT22;40782;47.264;11.330;2023-01-05T12:42:01;9.80;99.90
29547;DHT22;40782;47.264;11.330;2023-01-05T12:44:48;9.80;99.90
29547;DHT22;40782;47.264;11.330;2023-01-05T12:47:25;9.80;99.90
29547;DHT22;40782;47.264;11.330;2023-01-05T12:49:58;9.80;99.90
29547;DHT22;40782;47.264;11.330;2023-01-05T12:52:29;9.80;99.90
29547;DHT22;40782;47.264;11.330;2023-01-05T12:55:03;9.80;99.90
29547;DHT22;40782;47.264;11.330;2023-01-05T12:57:36;9.80;99.90
29547;DHT22;40782;47.264;11.330;2023-01-05T13:00:08;9.80;99.90
29547;DHT22;40782;47.264;11.330;2023-01-05T13:02:40;9.70;99.90
29547;DHT22;40782;47.264;11.330;2023-01-05T13:05:15;9.70;99.90
29547;DHT22;40782;47.264;11.330;2023-01-05T13:07:48;9.80;99.90
29547;DHT22;40782;47.264;11.330;2023-01-05T13:10:19;9.70;99.90
29547;DHT22;40782;47.264;11.330;2023-01-05T13:12:53;9.70;99.90
29547;DHT22;40782;47.264;11.330;2023-01-05T13:15:25;9.70;99.90
29547;DHT22;40782;47.264;11.330;2023-01-05T13:17:55;9.80;99.90
29547;DHT22;40782;47.264;11.330;2023-01-05T13:20:27;9.80;99.90
29547;DHT22;40782;47.264;11.330;2023-01-05T13:23:02;9.90;99.90
29547;DHT22;40782;47.264;11.330;2023-01-05T13:25:34;10.00;99.90
29547;DHT22;40782;47.264;11.330;2023-01-05T13:28:05;10.00;99.90
29547;DHT22;40782;47.264;11.330;2023-01-05T13:30:37;10.00;99.90
29547;DHT22;40782;47.264;11.330;2023-01-05T13:33:24;10.10;99.90
29547;DHT22;40782;47.264;11.330;2023-01-05T13:36:05;10.10;99.90
29547;DHT22;40782;47.264;11.330;2023-01-05T13:44:54;10.10;99.90
29547;DHT22;40782;47.264;11.330;2023-01-05T13:47:37;10.10;99.90
29547;DHT22;40782;47.264;11.330;2023-01-05T13:50:35;10.10;99.90
29547;DHT22;40782;47.264;11.330;2023-01-05T13:53:08;10.00;99.90
29547;DHT22;40782;47.264;11.330;2023-01-05T13:55:42;10.00;99.90
29547;DHT22;40782;47.264;11.330;2023-01-05T13:58:33;10.00;99.90
29547;DHT22;40782;47.264;11.330;2023-01-05T14:01:04;10.10;99.90
29547;DHT22;40782;47.264;11.330;2023-01-05T14:03:36;10.10;99.90
29547;DHT22;40782;47.264;11.330;2023-01-05T14:06:13;10.10;99.90
29547;DHT22;40782;47.264;11.330;2023-01-05T14:08:47;10.10;99.90
29547;DHT22;40782;47.264;11.330;2023-01-05T14:11:17;10.10;99.90
29547;DHT22;40782;47.264;11.330;2023-01-05T14:13:50;10.10;99.90
29547;DHT22;40782;47.264;11.330;2023-01-05T14:16:50;10.10;99.90
29547;DHT22;40782;47.264;11.330;2023-01-05T14:22:34;10.00;99.90
29547;DHT22;40782;47.264;11.330;2023-01-05T14:28:39;9.80;99.90
29547;DHT22;40782;47.264;11.330;2023-01-05T14:34:05;9.80;99.90
29547;DHT22;40782;47.264;11.330;2023-01-05T14:36:36;10.00;99.90
29547;DHT22;40782;47.264;11.330;2023-01-05T14:39:17;10.70;99.90
29547;DHT22;40782;47.264;11.330;2023-01-05T14:41:57;11.60;99.90
29547;DHT22;40782;47.264;11.330;2023-01-05T14:44:28;12.40;99.90
29547;DHT22;40782;47.264;11.330;2023-01-05T14:46:56;12.90;99.90
29547;DHT22;40782;47.264;11.330;2023-01-05T14:49:30;13.20;99.90
29547;DHT22;40782;47.264;11.330;2023-01-05T14:51:59;13.40;99.90
29547;DHT22;40782;47.264;11.330;2023-01-05T14:57:54;13.70;99.90
29547;DHT22;40782;47.264;11.330;2023-01-05T15:00:37;13.90;99.90
29547;DHT22;40782;47.264;11.330;2023-01-05T15:03:19;13.90;99.90
29547;DHT22;40782;47.264;11.330;2023-01-05T15:05:54;14.00;99.90
29547;DHT22;40782;47.264;11.330;2023-01-05T15:11:55;14.10;99.90
29547;DHT22;40782;47.264;11.330;2023-01-05T15:14:48;14.20;99.90
29547;DHT22;40782;47.264;11.330;2023-01-05T15:18:06;14.20;99.90
29547;DHT22;40782;47.264;11.330;2023-01-05T15:27:00;14.30;99.90
29547;DHT22;40782;47.264;11.330;2023-01-05T15:29:50;14.30;99.90
29547;DHT22;40782;47.264;11.330;2023-01-05T15:32:21;14.30;99.90
29547;DHT22;40782;47.264;11.330;2023-01-05T15:34:53;14.30;99.90
29547;DHT22;40782;47.264;11.330;2023-01-05T15:37:24;14.40;99.90
29547;DHT22;40782;47.264;11.330;2023-01-05T15:39:56;14.40;99.90
29547;DHT22;40782;47.264;11.330;2023-01-05T15:42:29;14.40;99.90
29547;DHT22;40782;47.264;11.330;2023-01-05T15:45:00;14.30;99.90
29547;DHT22;40782;47.264;11.330;2023-01-05T15:47:28;14.30;99.90
29547;DHT22;40782;47.264;11.330;2023-01-05T15:49:57;14.30;99.90
29547;DHT22;40782;47.264;11.330;2023-01-05T15:52:30;14.30;99.90
29547;DHT22;40782;47.264;11.330;2023-01-05T15:55:02;14.30;99.90
29547;DHT22;40782;47.264;11.330;2023-01-05T15:57:29;14.30;99.90
29547;DHT22;40782;47.264;11.330;2023-01-05T15:59:56;14.30;99.90
29547;DHT22;40782;47.264;11.330;2023-01-05T16:02:26;14.30;99.90
29547;DHT22;40782;47.264;11.330;2023-01-05T16:05:13;14.30;99.90
29547;DHT22;40782;47.264;11.330;2023-01-05T16:07:43;14.30;99.90
29547;DHT22;40782;47.264;11.330;2023-01-05T16:10:21;14.20;99.90
29547;DHT22;40782;47.264;11.330;2023-01-05T16:13:00;14.20;99.90
29547;DHT22;40782;47.264;11.330;2023-01-05T16:15:33;14.20;99.90
29547;DHT22;40782;47.264;11.330;2023-01-05T16:18:00;14.10;99.90
29547;DHT22;40782;47.264;11.330;2023-01-05T16:20:29;14.10;99.90
29547;DHT22;40782;47.264;11.330;2023-01-05T16:23:04;14.10;99.90
29547;DHT22;40782;47.264;11.330;2023-01-05T16:25:38;14.10;99.90
29547;DHT22;40782;47.264;11.330;2023-01-05T16:28:11;14.00;99.90
29547;DHT22;40782;47.264;11.330;2023-01-05T16:30:42;14.00;99.90
29547;DHT22;40782;47.264;11.330;2023-01-05T16:33:22;13.90;99.90
29547;DHT22;40782;47.264;11.330;2023-01-05T16:36:05;13.90;99.90
29547;DHT22;40782;47.264;11.330;2023-01-05T16:38:33;13.90;99.90
29547;DHT22;40782;47.264;11.330;2023-01-05T16:41:20;13.90;99.90
29547;DHT22;40782;47.264;11.330;2023-01-05T16:43:54;13.90;99.90
29547;DHT22;40782;47.264;11.330;2023-01-05T16:46:39;13.80;99.90
29547;DHT22;40782;47.264;11.330;2023-01-05T16:49:31;13.70;99.90
29547;DHT22;40782;47.264;11.330;2023-01-05T16:51:59;13.50;99.90
29547;DHT22;40782;47.264;11.330;2023-01-05T16:54:30;13.40;99.90
29547;DHT22;40782;47.264;11.330;2023-01-05T16:57:11;13.30;99.90